Time;durP1;ratioP1;P1;durP2;ratioP2;P2;SDS_P1;SDS_P2;PMS_P1;PMS_P2;Temp;Humidity;BMP_temperature;BMP_pressure;BME280_temperature;BME280_humidity;BME280_pressure;Samples;Min_cycle;Max_cycle;Signal;HPM_P1;HPM_P2
2023/01/12 00:01:20;;;;;;;6.45;2.17;;;7.70;99.90;;;;;;5073606;28;20416;-63
2023/01/12 00:03:47;;;;;;;6.05;2.10;;;7.60;99.90;;;;;;5073040;28;20425;-64
2023/01/12 00:06:15;;;;;;;6.20;1.80;;;7.60;99.90;;;;;;5073444;28;20411;-63
2023/01/12 00:08:42;;;;;;;4.72;1.50;;;7.60;99.90;;;;;;5072962;28;20419;-62
2023/01/12 00:11:09;;;;;;;5.53;2.15;;;7.60;99.90;;;;;;5072636;28;20923;-63
2023/01/12 00:13:35;;;;;;;6.93;2.03;;;7.60;99.90;;;;;;5072662;28;20416;-63
2023/01/12 00:18:48;;;;;;;8.30;2.33;;;7.70;99.90;;;;;;5059266;28;20403;-64
2023/01/12 00:21:17;;;;;;;7.43;2.35;;;7.80;99.90;;;;;;5072351;28;20414;-63
2023/01/12 00:23:44;;;;;;;4.55;1.80;;;7.80;99.90;;;;;;5072535;28;20418;-64
2023/01/12 00:26:11;;;;;;;5.63;1.98;;;7.80;99.90;;;;;;5074073;28;20407;-62
2023/01/12 00:28:38;;;;;;;6.07;2.13;;;7.90;99.90;;;;;;5076645;28;20422;-64
2023/01/12 00:31:08;;;;;;;6.65;1.90;;;7.90;99.90;;;;;;5076186;28;20411;-64
2023/01/12 00:33:35;;;;;;;8.05;1.90;;;7.90;99.90;;;;;;5077141;28;20455;-63
2023/01/12 00:36:03;;;;;;;4.57;1.65;;;7.90;99.90;;;;;;5076085;28;20442;-63
2023/01/12 00:38:32;;;;;;;4.60;1.55;;;8.00;99.90;;;;;;5077189;28;20421;-63
2023/01/12 00:41:05;;;;;;;7.25;2.20;;;8.00;99.90;;;;;;5078801;28;20426;-64
2023/01/12 00:46:16;;;;;;;5.85;2.00;;;8.10;99.90;;;;;;5076975;28;20478;-65
2023/01/12 00:48:43;;;;;;;7.18;1.55;;;8.10;99.90;;;;;;5080269;28;20475;-63
2023/01/12 00:51:09;;;;;;;3.85;1.65;;;8.20;99.90;;;;;;5082369;28;20748;-64
2023/01/12 00:53:38;;;;;;;5.20;1.60;;;8.20;99.90;;;;;;5084041;28;20412;-64
2023/01/12 00:56:06;;;;;;;3.88;1.50;;;8.20;99.90;;;;;;5088342;28;20914;-63
2023/01/12 00:58:32;;;;;;;4.38;1.50;;;8.20;99.90;;;;;;5090430;28;20479;-63
2023/01/12 01:01:05;;;;;;;6.18;1.60;;;8.30;99.90;;;;;;5088676;28;20921;-64
2023/01/12 01:03:32;;;;;;;7.45;2.38;;;8.30;99.90;;;;;;5084077;28;20493;-64
2023/01/12 01:06:03;;;;;;;5.65;1.92;;;8.30;99.90;;;;;;5080774;28;20996;-64
2023/01/12 01:08:30;;;;;;;7.60;1.70;;;8.20;99.90;;;;;;5077692;28;20452;-62
2023/01/12 01:11:06;;;;;;;4.50;2.00;;;8.20;99.90;;;;;;5081266;28;20447;-63
2023/01/12 01:13:35;;;;;;;9.17;2.40;;;8.20;99.90;;;;;;5078959;28;20448;-63
2023/01/12 01:16:02;;;;;;;6.30;1.80;;;8.20;99.90;;;;;;5076350;28;20423;-63
2023/01/12 01:18:30;;;;;;;5.90;1.85;;;8.10;99.90;;;;;;5076489;28;20404;-63
2023/01/12 01:20:57;;;;;;;4.82;1.80;;;8.10;99.90;;;;;;5078150;28;20420;-63
2023/01/12 01:23:25;;;;;;;5.18;1.70;;;8.20;99.90;;;;;;5077829;28;20415;-62
2023/01/12 01:25:52;;;;;;;6.45;2.20;;;8.20;99.90;;;;;;5076512;28;20404;-63
2023/01/12 01:28:21;;;;;;;5.23;2.00;;;8.20;99.90;;;;;;5079836;28;20442;-62
2023/01/12 01:30:48;;;;;;;5.95;2.00;;;8.30;99.90;;;;;;5075090;28;20857;-63
2023/01/12 01:33:15;;;;;;;4.00;2.00;;;8.30;99.90;;;;;;5075052;28;20424;-63
2023/01/12 01:35:42;;;;;;;6.15;2.00;;;8.30;99.90;;;;;;5075288;28;20430;-63
2023/01/12 01:38:10;;;;;;;7.13;1.90;;;8.30;99.90;;;;;;5074530;28;20418;-63
2023/01/12 01:40:43;;;;;;;4.93;1.80;;;8.40;99.90;;;;;;5075086;28;20445;-63
2023/01/12 01:43:13;;;;;;;5.30;2.10;;;8.40;99.90;;;;;;5075321;28;20415;-63
2023/01/12 01:45:44;;;;;;;6.18;2.13;;;8.50;99.90;;;;;;5074803;28;20412;-63
2023/01/12 01:48:14;;;;;;;3.60;1.60;;;8.50;99.90;;;;;;5075213;28;20426;-62
2023/01/12 01:50:47;;;;;;;4.80;1.50;;;8.60;99.90;;;;;;5075219;28;20509;-62
2023/01/12 01:53:20;;;;;;;4.50;1.27;;;8.60;99.90;;;;;;5074930;28;20464;-63
2023/01/12 01:55:51;;;;;;;3.95;1.20;;;8.60;99.90;;;;;;5074786;28;20934;-63
2023/01/12 01:58:22;;;;;;;2.70;1.23;;;8.70;99.90;;;;;;5074631;28;20868;-63
2023/01/12 02:00:51;;;;;;;3.00;1.50;;;8.70;99.90;;;;;;5075324;28;20423;-63
2023/01/12 02:03:18;;;;;;;4.50;1.50;;;8.70;99.90;;;;;;5075139;28;20871;-62
2023/01/12 02:05:48;;;;;;;3.40;1.20;;;8.70;99.90;;;;;;5074853;28;20502;-63
2023/01/12 02:08:21;;;;;;;3.45;1.20;;;8.80;99.90;;;;;;5074518;28;20423;-64
2023/01/12 02:10:49;;;;;;;4.07;1.10;;;8.70;99.90;;;;;;5074396;28;20499;-63
2023/01/12 02:16:22;;;;;;;2.92;1.10;;;8.70;99.90;;;;;;5074914;28;20472;-64
2023/01/12 02:19:19;;;;;;;1.70;1.20;;;8.70;99.90;;;;;;5077601;28;20416;-63
2023/01/12 02:22:08;;;;;;;4.60;1.63;;;8.70;99.90;;;;;;5084381;28;20426;-63
2023/01/12 02:24:56;;;;;;;5.15;2.40;;;8.70;99.90;;;;;;5085952;28;20990;-62
2023/01/12 02:27:34;;;;;;;5.07;2.10;;;8.70;99.90;;;;;;5083923;28;20485;-63
2023/01/12 02:30:39;;;;;;;6.10;2.20;;;8.70;99.90;;;;;;5084918;28;20463;-63
2023/01/12 02:33:23;;;;;;;3.20;1.40;;;8.60;99.90;;;;;;5066818;28;20415;-64
2023/01/12 02:35:59;;;;;;;3.83;1.60;;;8.60;99.90;;;;;;5085289;28;20431;-64
2023/01/12 02:38:34;;;;;;;5.78;1.60;;;8.60;99.90;;;;;;5086063;28;20449;-64
2023/01/12 02:41:11;;;;;;;5.07;1.80;;;8.60;99.90;;;;;;5085028;28;20495;-64
2023/01/12 02:43:38;;;;;;;4.45;1.90;;;8.60;99.90;;;;;;5084894;28;20415;-63
2023/01/12 02:46:13;;;;;;;4.60;1.90;;;8.60;99.90;;;;;;5084519;28;20498;-64
2023/01/12 02:48:46;;;;;;;4.50;2.00;;;8.60;99.90;;;;;;5084583;28;20791;-62
2023/01/12 02:51:18;;;;;;;3.70;2.00;;;8.60;99.90;;;;;;5081265;28;20448;-63
2023/01/12 02:53:49;;;;;;;5.60;2.00;;;8.60;99.90;;;;;;5080853;28;20421;-63
2023/01/12 02:56:20;;;;;;;6.75;1.92;;;8.60;99.90;;;;;;5082678;28;20494;-64
2023/01/12 02:58:51;;;;;;;8.05;2.22;;;8.60;99.90;;;;;;5078730;28;20423;-63
2023/01/12 03:01:19;;;;;;;5.90;2.20;;;8.70;99.90;;;;;;5078987;28;20423;-63
2023/01/12 03:03:48;;;;;;;4.80;1.93;;;8.70;99.90;;;;;;5077308;28;20427;-64
2023/01/12 03:06:17;;;;;;;5.93;1.90;;;8.70;99.90;;;;;;5078195;28;20478;-63
2023/01/12 03:08:45;;;;;;;5.10;1.90;;;8.70;99.90;;;;;;5078459;28;20415;-62
2023/01/12 03:11:13;;;;;;;5.90;2.30;;;8.70;99.90;;;;;;5078185;28;20785;-63
2023/01/12 03:13:45;;;;;;;4.93;1.65;;;8.70;99.90;;;;;;5078121;28;20906;-64
2023/01/12 03:16:16;;;;;;;6.05;2.15;;;8.70;99.90;;;;;;5075180;28;20810;-64
2023/01/12 03:18:50;;;;;;;4.80;1.63;;;8.70;99.90;;;;;;5075123;28;20519;-63
2023/01/12 03:21:25;;;;;;;3.20;1.73;;;8.60;99.90;;;;;;5076444;28;20497;-63
2023/01/12 03:24:00;;;;;;;3.80;1.52;;;8.60;99.90;;;;;;5075018;28;20603;-64
2023/01/12 03:26:28;;;;;;;5.30;1.88;;;8.50;99.90;;;;;;5074843;28;20772;-63
2023/01/12 03:29:02;;;;;;;4.38;2.03;;;8.50;99.90;;;;;;5075024;28;20776;-63
2023/01/12 03:31:28;;;;;;;10.07;4.25;;;8.50;99.90;;;;;;5072924;28;20812;-64
2023/01/12 03:33:57;;;;;;;7.32;2.58;;;8.50;99.90;;;;;;5073109;28;20414;-64
2023/01/12 03:36:33;;;;;;;4.95;2.40;;;8.50;99.90;;;;;;5072671;28;20933;-63
2023/01/12 03:39:08;;;;;;;2.90;1.80;;;8.50;99.90;;;;;;5072669;28;20416;-64
2023/01/12 03:41:45;;;;;;;3.08;1.70;;;8.50;99.90;;;;;;5072715;28;20419;-63
2023/01/12 03:44:20;;;;;;;3.35;1.40;;;8.60;99.90;;;;;;5073252;28;20407;-64
2023/01/12 03:46:54;;;;;;;4.72;2.05;;;8.60;99.90;;;;;;5072631;28;20426;-64
2023/01/12 03:49:32;;;;;;;3.95;1.30;;;8.60;99.90;;;;;;5072616;28;20422;-63
2023/01/12 03:52:01;;;;;;;3.38;1.58;;;8.60;99.90;;;;;;5074464;28;20415;-63
2023/01/12 03:54:30;;;;;;;3.80;1.60;;;8.70;99.90;;;;;;5074695;28;20753;-63
2023/01/12 03:56:57;;;;;;;3.40;1.45;;;8.60;99.90;;;;;;5074907;28;20427;-64
2023/01/12 03:59:25;;;;;;;2.85;1.50;;;8.70;99.90;;;;;;5074911;28;20415;-64
2023/01/12 04:01:52;;;;;;;4.50;1.45;;;8.70;99.90;;;;;;5074427;28;20408;-64
2023/01/12 04:04:19;;;;;;;3.30;1.75;;;8.70;99.90;;;;;;5073569;28;20422;-63
2023/01/12 04:06:47;;;;;;;5.30;1.60;;;8.70;99.90;;;;;;5073396;28;20419;-64
2023/01/12 04:10:57;;;;;;;4.38;1.70;;;8.60;99.90;;;;;;5091847;28;20343;-63
2023/01/12 04:13:23;;;;;;;3.90;1.70;;;8.60;99.90;;;;;;5091045;28;20429;-63
2023/01/12 04:15:50;;;;;;;3.60;1.50;;;8.60;99.90;;;;;;5090962;28;20486;-64
2023/01/12 04:18:17;;;;;;;5.28;1.60;;;8.50;99.90;;;;;;5090450;28;20442;-64
2023/01/12 04:20:44;;;;;;;4.97;1.90;;;8.40;99.90;;;;;;5091254;28;20411;-62
2023/01/12 04:23:09;;;;;;;3.45;1.55;;;8.40;99.90;;;;;;5059437;22;20451;-63
2023/01/12 04:25:36;;;;;;;2.20;1.27;;;8.40;99.90;;;;;;5009541;28;20413;-62
2023/01/12 04:28:05;;;;;;;3.10;1.70;;;8.30;99.90;;;;;;5009412;28;20414;-62
2023/01/12 04:30:33;;;;;;;3.70;1.70;;;8.30;99.90;;;;;;5009241;28;20483;-60
2023/01/12 04:33:05;;;;;;;3.47;1.52;;;8.30;99.90;;;;;;5009800;28;20449;-62
2023/01/12 04:35:32;;;;;;;4.40;1.63;;;8.20;99.90;;;;;;5010543;28;20421;-61
2023/01/12 04:37:58;;;;;;;3.90;1.40;;;8.20;99.90;;;;;;5011155;28;20425;-62
2023/01/12 04:40:25;;;;;;;5.55;1.83;;;8.20;99.90;;;;;;5009573;28;20417;-62
2023/01/12 04:43:06;;;;;;;2.90;1.60;;;8.10;99.90;;;;;;5009577;28;20425;-62
2023/01/12 04:45:36;;;;;;;3.70;1.80;;;8.10;99.90;;;;;;5009081;28;20429;-61
2023/01/12 04:48:05;;;;;;;2.67;1.67;;;8.10;99.90;;;;;;5008808;28;20458;-62
2023/01/12 04:50:31;;;;;;;3.20;1.73;;;8.10;99.90;;;;;;5008981;28;20434;-62
2023/01/12 04:53:01;;;;;;;3.80;1.80;;;8.10;99.90;;;;;;5009015;28;20418;-60
2023/01/12 04:55:28;;;;;;;3.47;1.55;;;8.10;99.90;;;;;;5008970;28;20429;-61
2023/01/12 04:57:55;;;;;;;3.63;1.60;;;8.10;99.90;;;;;;5009090;28;20429;-61
2023/01/12 05:00:22;;;;;;;6.20;2.85;;;8.10;99.90;;;;;;5009048;28;20413;-61
2023/01/12 05:02:55;;;;;;;5.07;2.40;;;8.10;99.90;;;;;;5008716;28;20413;-62
2023/01/12 05:05:22;;;;;;;2.08;1.30;;;8.10;99.90;;;;;;5006182;28;20535;-63
2023/01/12 05:10:30;;;;;;;4.28;1.40;;;8.10;99.90;;;;;;5007172;28;20523;-61
2023/01/12 05:12:56;;;;;;;3.28;1.45;;;8.10;99.90;;;;;;5007405;28;20801;-62
2023/01/12 05:15:23;;;;;;;2.50;1.45;;;8.10;99.90;;;;;;5008100;28;20429;-62
2023/01/12 05:17:53;;;;;;;4.43;2.20;;;8.00;99.90;;;;;;5008585;28;20409;-61
2023/01/12 05:20:20;;;;;;;4.00;1.80;;;8.00;99.90;;;;;;4994960;28;20473;-61
2023/01/12 05:22:50;;;;;;;3.08;1.60;;;8.00;99.90;;;;;;4975746;28;20435;-61
2023/01/12 05:25:17;;;;;;;3.33;1.90;;;8.00;99.90;;;;;;4975981;28;20428;-61
2023/01/12 05:27:43;;;;;;;4.40;1.80;;;8.00;99.90;;;;;;4975644;28;20442;-62
2023/01/12 05:30:11;;;;;;;3.97;1.60;;;8.00;99.90;;;;;;4976178;28;20439;-63
2023/01/12 05:32:40;;;;;;;3.55;1.65;;;8.00;99.90;;;;;;4995318;28;20480;-61
2023/01/12 05:35:11;;;;;;;3.10;1.70;;;8.00;99.90;;;;;;4995282;28;20513;-63
2023/01/12 05:37:38;;;;;;;3.95;1.35;;;8.00;99.90;;;;;;4995272;28;20422;-61
2023/01/12 05:40:06;;;;;;;1.50;1.20;;;8.00;99.90;;;;;;4994401;28;20421;-61
2023/01/12 05:45:17;;;;;;;4.40;1.40;;;8.00;99.90;;;;;;4993913;28;20794;-61
2023/01/12 05:47:43;;;;;;;3.17;1.20;;;8.00;99.90;;;;;;4993901;28;20426;-62
2023/01/12 05:50:12;;;;;;;3.15;1.38;;;8.10;99.90;;;;;;4993839;28;20438;-61
2023/01/12 05:52:38;;;;;;;2.05;1.10;;;8.00;99.90;;;;;;4994643;28;20429;-63
2023/01/12 05:55:06;;;;;;;3.72;1.13;;;8.00;99.90;;;;;;4992766;28;20438;-61
2023/01/12 05:57:33;;;;;;;3.10;1.20;;;8.00;99.90;;;;;;4975114;28;20446;-61
2023/01/12 06:00:00;;;;;;;3.40;1.60;;;8.00;99.90;;;;;;4991399;28;20495;-61
2023/01/12 06:02:27;;;;;;;2.72;0.90;;;8.00;99.90;;;;;;4994140;28;20513;-61
2023/01/12 06:04:54;;;;;;;2.90;1.30;;;8.10;99.90;;;;;;4994438;28;20434;-63
2023/01/12 06:07:24;;;;;;;1.98;0.90;;;8.10;99.90;;;;;;4994384;28;20423;-62
2023/01/12 06:09:50;;;;;;;2.80;1.35;;;8.10;99.90;;;;;;4994658;28;20445;-62
2023/01/12 06:15:02;;;;;;;2.65;1.40;;;8.10;99.90;;;;;;4994783;28;20405;-62
2023/01/12 06:17:28;;;;;;;3.30;1.10;;;8.10;99.90;;;;;;4992402;28;20438;-62
2023/01/12 06:19:57;;;;;;;2.67;0.90;;;8.10;99.90;;;;;;4993041;28;20818;-62
2023/01/12 06:22:25;;;;;;;1.05;0.70;;;8.10;99.90;;;;;;4994559;28;20874;-61
2023/01/12 06:24:53;;;;;;;2.35;1.27;;;8.10;99.90;;;;;;4992654;28;20442;-62
2023/01/12 06:27:20;;;;;;;2.17;1.00;;;8.10;99.90;;;;;;4993027;28;20529;-61
2023/01/12 06:29:48;;;;;;;2.78;0.95;;;8.10;99.90;;;;;;4993192;28;20443;-63
2023/01/12 06:32:14;;;;;;;1.92;0.80;;;8.10;99.90;;;;;;4992218;28;20530;-62
2023/01/12 06:34:41;;;;;;;2.27;1.10;;;8.10;99.90;;;;;;4993023;28;20434;-62
2023/01/12 06:37:10;;;;;;;2.00;0.70;;;8.20;99.90;;;;;;4992039;28;20441;-62
2023/01/12 06:39:39;;;;;;;2.65;0.90;;;8.10;99.90;;;;;;4991775;28;20544;-62
2023/01/12 06:44:50;;;;;;;2.50;0.90;;;8.20;99.90;;;;;;4982611;28;20425;-62
2023/01/12 06:47:17;;;;;;;1.58;0.90;;;8.20;99.90;;;;;;4992635;28;20517;-62
2023/01/12 06:49:43;;;;;;;2.40;0.80;;;8.20;99.90;;;;;;4992479;28;20513;-63
2023/01/12 06:52:10;;;;;;;1.27;0.70;;;8.30;99.90;;;;;;4992705;28;20517;-64
2023/01/12 06:54:38;;;;;;;1.60;0.75;;;8.20;99.90;;;;;;4993407;28;20442;-62
2023/01/12 06:57:05;;;;;;;2.22;0.80;;;8.20;99.90;;;;;;4992360;28;20438;-61
2023/01/12 06:59:32;;;;;;;3.03;1.00;;;8.20;99.90;;;;;;4992541;28;20807;-62
2023/01/12 07:01:59;;;;;;;1.80;0.80;;;8.20;99.90;;;;;;4991465;28;20795;-62
2023/01/12 07:04:26;;;;;;;1.30;0.80;;;8.20;99.90;;;;;;4992163;28;20438;-63
2023/01/12 07:06:54;;;;;;;1.92;1.08;;;8.20;99.90;;;;;;4993159;28;20467;-61
2023/01/12 07:09:21;;;;;;;1.90;0.80;;;8.20;99.90;;;;;;4992246;28;20469;-63
2023/01/12 07:11:49;;;;;;;4.43;1.50;;;8.20;99.90;;;;;;4992024;28;20446;-61
2023/01/12 07:14:16;;;;;;;2.30;1.00;;;8.20;99.90;;;;;;4992330;28;20434;-62
2023/01/12 07:16:43;;;;;;;3.50;1.30;;;8.20;99.90;;;;;;4993139;28;20426;-62
2023/01/12 07:19:10;;;;;;;2.20;0.70;;;8.20;99.90;;;;;;4993162;28;20415;-62
2023/01/12 07:21:36;;;;;;;2.00;0.70;;;8.20;99.90;;;;;;4993041;28;20926;-63
2023/01/12 07:24:03;;;;;;;2.97;1.00;;;8.20;99.90;;;;;;4992814;28;20856;-64
2023/01/12 07:26:30;;;;;;;3.15;0.90;;;8.20;99.90;;;;;;4992743;28;20529;-63
2023/01/12 07:28:58;;;;;;;3.75;1.10;;;8.20;99.90;;;;;;4993063;28;20422;-62
2023/01/12 07:31:25;;;;;;;1.80;0.88;;;8.20;99.90;;;;;;4994071;28;20888;-62
2023/01/12 07:33:53;;;;;;;2.70;1.10;;;8.10;99.90;;;;;;4992860;28;20436;-61
2023/01/12 07:36:20;;;;;;;2.20;0.95;;;8.10;99.90;;;;;;4992758;28;20429;-62
2023/01/12 07:38:47;;;;;;;1.90;0.90;;;8.10;99.90;;;;;;4992904;28;20431;-63
2023/01/12 07:43:54;;;;;;;2.55;0.90;;;8.10;99.90;;;;;;4991646;28;20507;-62
2023/01/12 07:46:23;;;;;;;1.67;0.90;;;8.10;99.90;;;;;;4991907;28;20524;-62
2023/01/12 07:48:49;;;;;;;3.08;1.10;;;8.10;99.90;;;;;;4990691;28;20452;-62
2023/01/12 07:51:17;;;;;;;1.80;0.90;;;8.00;99.90;;;;;;4992479;28;20431;-62
2023/01/12 07:53:44;;;;;;;2.20;0.93;;;8.00;99.90;;;;;;4991981;28;20434;-61
2023/01/12 07:56:14;;;;;;;1.45;0.80;;;8.00;99.90;;;;;;4992923;28;20436;-62
2023/01/12 07:58:41;;;;;;;2.50;0.70;;;8.00;99.90;;;;;;4992398;28;20454;-62
2023/01/12 08:01:11;;;;;;;2.17;0.90;;;8.00;99.90;;;;;;4989507;28;20526;-62
2023/01/12 08:03:40;;;;;;;2.20;1.02;;;7.90;99.90;;;;;;4991443;28;20452;-63
2023/01/12 08:06:07;;;;;;;1.30;0.80;;;7.90;99.90;;;;;;4992991;28;20429;-62
2023/01/12 08:08:34;;;;;;;2.35;1.10;;;7.90;99.90;;;;;;4991337;28;20802;-63
2023/01/12 08:11:01;;;;;;;2.00;0.90;;;7.90;99.90;;;;;;4991043;28;20434;-62
2023/01/12 08:13:28;;;;;;;2.65;1.00;;;7.90;99.90;;;;;;4990990;28;20430;-62
2023/01/12 08:15:56;;;;;;;1.70;0.70;;;7.90;99.90;;;;;;4991277;28;20470;-61
2023/01/12 08:18:27;;;;;;;1.50;0.80;;;7.90;99.90;;;;;;4991265;28;20501;-62
2023/01/12 08:20:58;;;;;;;2.80;0.88;;;7.90;99.90;;;;;;4991571;28;20430;-62
2023/01/12 08:23:29;;;;;;;2.87;1.17;;;7.90;99.90;;;;;;4989925;28;20438;-62
2023/01/12 08:26:01;;;;;;;2.08;0.90;;;7.90;99.90;;;;;;4991185;28;20434;-62
2023/01/12 08:28:32;;;;;;;1.42;0.85;;;7.90;99.90;;;;;;4992450;28;20418;-63
2023/01/12 08:30:59;;;;;;;1.73;0.90;;;7.90;99.90;;;;;;4992651;28;20446;-62
2023/01/12 08:33:27;;;;;;;1.88;1.10;;;7.90;99.90;;;;;;4992907;28;20414;-62
2023/01/12 08:35:55;;;;;;;2.23;1.20;;;7.90;99.90;;;;;;4993619;28;20425;-63
2023/01/12 08:38:22;;;;;;;4.00;1.00;;;8.00;99.90;;;;;;4993135;28;20457;-63
2023/01/12 08:46:17;;;;;;;2.40;1.10;;;8.00;99.90;;;;;;4992027;28;20429;-62
2023/01/12 08:48:44;;;;;;;2.03;1.40;;;8.10;99.90;;;;;;4990585;28;20441;-63
2023/01/12 08:51:12;;;;;;;2.10;0.90;;;8.10;99.90;;;;;;4990318;28;20441;-63
2023/01/12 08:53:39;;;;;;;2.60;1.50;;;8.10;99.90;;;;;;4989701;28;20494;-64
2023/01/12 08:56:06;;;;;;;3.30;1.40;;;8.20;99.90;;;;;;4988434;28;20443;-62
2023/01/12 08:58:33;;;;;;;2.60;1.20;;;8.20;99.90;;;;;;4988494;28;20446;-62
2023/01/12 09:01:07;;;;;;;2.95;1.30;;;8.20;99.90;;;;;;4993422;28;20942;-63
2023/01/12 09:03:34;;;;;;;3.78;1.50;;;8.30;99.90;;;;;;4993140;28;20441;-62
2023/01/12 09:06:09;;;;;;;2.53;1.25;;;8.30;99.90;;;;;;4994005;28;20541;-62
2023/01/12 09:08:37;;;;;;;2.50;1.20;;;8.30;99.90;;;;;;4988609;28;20441;-62
2023/01/12 09:11:04;;;;;;;1.98;1.35;;;8.30;99.90;;;;;;4993565;28;20435;-62
2023/01/12 09:13:33;;;;;;;1.95;0.70;;;8.30;99.90;;;;;;4995474;28;20422;-63
2023/01/12 09:16:03;;;;;;;1.20;0.80;;;8.30;99.90;;;;;;4994723;28;20441;-63
2023/01/12 09:18:29;;;;;;;1.63;1.00;;;8.40;99.90;;;;;;4994961;28;20923;-61
2023/01/12 09:21:01;;;;;;;1.60;0.80;;;8.40;99.90;;;;;;4995188;28;20783;-63
2023/01/12 09:23:28;;;;;;;1.40;0.60;;;8.40;99.90;;;;;;4997117;28;20742;-61
2023/01/12 09:25:56;;;;;;;3.40;0.77;;;8.40;99.90;;;;;;4996020;28;20452;-62
2023/01/12 09:28:23;;;;;;;1.50;0.60;;;8.40;99.90;;;;;;4996997;28;20422;-62
2023/01/12 09:30:50;;;;;;;1.03;0.60;;;8.50;99.90;;;;;;4995966;28;20518;-63
2023/01/12 09:33:17;;;;;;;1.00;0.50;;;8.50;99.90;;;;;;4995408;28;20529;-61
2023/01/12 09:35:44;;;;;;;0.60;0.40;;;8.50;99.90;;;;;;4995414;28;20791;-62
2023/01/12 09:38:11;;;;;;;1.48;0.60;;;8.60;99.90;;;;;;4994444;28;20520;-62
2023/01/12 09:40:42;;;;;;;1.75;0.70;;;8.60;99.90;;;;;;4995965;28;20780;-63
2023/01/12 09:48:42;;;;;;;1.80;0.60;;;8.70;99.90;;;;;;4995282;28;20858;-63
2023/01/12 09:51:16;;;;;;;1.50;0.60;;;8.80;99.90;;;;;;4995279;28;20490;-62
2023/01/12 09:53:44;;;;;;;0.73;0.60;;;8.80;99.90;;;;;;4995181;28;20432;-62
2023/01/12 09:56:18;;;;;;;0.80;0.60;;;8.80;99.90;;;;;;4994584;28;20454;-62
2023/01/12 09:59:08;;;;;;;0.90;0.57;;;8.80;99.90;;;;;;4995683;28;20555;-62
2023/01/12 10:01:36;;;;;;;0.70;0.40;;;8.80;99.90;;;;;;4994804;28;20422;-63
2023/01/12 10:04:05;;;;;;;1.23;0.60;;;8.80;99.90;;;;;;4995590;28;20426;-63
2023/01/12 10:06:32;;;;;;;1.20;0.80;;;8.80;99.90;;;;;;4994620;28;20426;-62
2023/01/12 10:09:02;;;;;;;0.70;0.40;;;8.80;99.90;;;;;;4995313;28;20426;-62
2023/01/12 10:11:38;;;;;;;1.60;0.60;;;8.80;99.90;;;;;;4994736;28;20532;-62
2023/01/12 10:14:27;;;;;;;0.70;0.50;;;8.80;99.90;;;;;;4994574;28;20894;-62
2023/01/12 10:17:06;;;;;;;0.75;0.40;;;8.80;99.90;;;;;;4994268;28;20501;-63
2023/01/12 10:19:41;;;;;;;1.05;0.60;;;8.80;99.90;;;;;;4993859;28;20551;-63
2023/01/12 10:24:41;;;;;;;1.23;0.50;;;8.80;99.90;;;;;;5053116;23;20434;-64
2023/01/12 10:27:14;;;;;;;0.73;0.40;;;8.80;99.90;;;;;;5033872;28;20418;-63
2023/01/12 10:29:42;;;;;;;0.90;0.60;;;8.80;99.90;;;;;;5033161;28;20994;-63
2023/01/12 10:32:11;;;;;;;1.30;0.60;;;8.90;99.90;;;;;;5031431;28;20803;-63
2023/01/12 10:34:51;;;;;;;1.20;0.70;;;8.90;99.90;;;;;;5013506;28;20500;-63
2023/01/12 10:37:18;;;;;;;0.88;0.47;;;8.90;99.90;;;;;;5012969;28;20448;-62
2023/01/12 10:39:45;;;;;;;0.70;0.50;;;9.00;99.90;;;;;;5013548;28;20448;-63
2023/01/12 10:45:19;;;;;;;0.88;0.50;;;9.00;99.90;;;;;;5013090;28;20502;-63
2023/01/12 10:47:47;;;;;;;1.40;0.50;;;9.10;99.90;;;;;;5013520;28;20413;-64
2023/01/12 10:50:22;;;;;;;1.00;0.70;;;9.20;99.90;;;;;;5011751;28;20436;-63
2023/01/12 10:52:53;;;;;;;0.60;0.40;;;9.20;99.90;;;;;;5012930;28;20459;-63
2023/01/12 10:55:20;;;;;;;0.73;0.50;;;9.20;99.90;;;;;;5014859;28;20837;-63
2023/01/12 10:57:48;;;;;;;1.00;0.70;;;9.30;99.90;;;;;;5011860;28;20433;-62
2023/01/12 11:00:23;;;;;;;0.70;0.50;;;9.40;99.90;;;;;;5012092;28;20786;-62
2023/01/12 11:02:50;;;;;;;0.60;0.40;;;9.50;99.90;;;;;;5012150;28;20433;-63
2023/01/12 11:05:32;;;;;;;1.60;0.50;;;9.50;99.90;;;;;;5011790;28;20442;-63
2023/01/12 11:08:00;;;;;;;0.80;0.50;;;9.60;99.90;;;;;;5012001;28;20467;-64
2023/01/12 11:10:29;;;;;;;0.80;0.50;;;9.70;99.90;;;;;;5012153;28;20433;-61
2023/01/12 11:12:58;;;;;;;1.30;0.63;;;9.80;99.90;;;;;;5011898;28;20438;-63
2023/01/12 11:15:27;;;;;;;1.48;0.70;;;9.90;99.90;;;;;;5010766;28;20490;-63
2023/01/12 11:18:10;;;;;;;1.60;0.90;;;10.00;99.90;;;;;;5013553;28;20412;-63
2023/01/12 11:20:40;;;;;;;1.10;0.60;;;10.00;99.90;;;;;;5012671;28;20417;-63
2023/01/12 11:23:11;;;;;;;1.00;0.60;;;10.00;99.90;;;;;;5012521;28;20512;-64
2023/01/12 11:25:42;;;;;;;1.27;0.70;;;10.10;99.90;;;;;;5012653;28;20881;-63
2023/01/12 11:28:15;;;;;;;2.00;1.30;;;10.10;99.90;;;;;;5012107;28;20417;-62
2023/01/12 11:30:50;;;;;;;1.35;0.90;;;10.10;99.90;;;;;;5009482;28;20913;-63
2023/01/12 11:33:20;;;;;;;1.53;1.03;;;10.10;99.90;;;;;;5012165;28;20918;-63
2023/01/12 11:35:53;;;;;;;1.13;0.80;;;10.10;99.90;;;;;;5011446;28;20441;-62
2023/01/12 11:38:24;;;;;;;1.50;0.80;;;10.10;99.90;;;;;;5011433;28;20420;-64
2023/01/12 11:40:52;;;;;;;1.70;1.00;;;10.10;99.90;;;;;;5012706;28;20427;-64
2023/01/12 11:46:21;;;;;;;1.13;0.77;;;10.20;99.90;;;;;;5001093;28;20424;-62
2023/01/12 11:48:56;;;;;;;1.30;1.10;;;10.30;99.90;;;;;;5011582;28;20440;-64
2023/01/12 11:51:24;;;;;;;1.50;1.10;;;10.40;99.90;;;;;;5011207;28;20432;-62
2023/01/12 11:53:51;;;;;;;1.10;0.90;;;10.40;99.90;;;;;;5011180;28;20867;-64
2023/01/12 11:56:32;;;;;;;2.00;1.30;;;10.40;99.90;;;;;;5010502;28;20443;-63
2023/01/12 11:59:09;;;;;;;2.20;1.13;;;10.50;99.90;;;;;;4997458;28;20523;-63
2023/01/12 12:01:44;;;;;;;2.22;1.13;;;10.50;99.90;;;;;;5010520;28;20428;-65
2023/01/12 12:04:28;;;;;;;1.98;1.00;;;10.50;99.90;;;;;;5011963;28;20447;-64
2023/01/12 12:07:07;;;;;;;1.45;1.10;;;10.60;99.90;;;;;;5011998;28;20872;-64
2023/01/12 12:09:55;;;;;;;2.75;1.20;;;10.70;99.90;;;;;;5012389;28;20436;-64
2023/01/12 12:12:36;;;;;;;1.17;0.90;;;10.70;99.90;;;;;;5012303;28;20439;-63
2023/01/12 12:15:19;;;;;;;2.10;1.33;;;10.70;99.90;;;;;;5003061;28;20424;-64
2023/01/12 12:17:56;;;;;;;2.00;1.20;;;10.70;99.90;;;;;;5011929;28;20447;-64
2023/01/12 12:20:34;;;;;;;2.10;1.10;;;10.80;99.90;;;;;;5012461;28;20437;-63
2023/01/12 12:23:11;;;;;;;1.40;1.20;;;10.80;99.90;;;;;;5012096;28;20435;-63
2023/01/12 12:25:47;;;;;;;1.00;0.80;;;10.80;99.90;;;;;;5012637;28;20441;-63
2023/01/12 12:28:38;;;;;;;1.30;0.70;;;10.80;99.90;;;;;;5011909;28;20801;-62
2023/01/12 12:31:19;;;;;;;1.50;0.90;;;10.90;99.90;;;;;;5002261;28;20438;-62
2023/01/12 12:34:03;;;;;;;1.20;0.60;;;10.90;99.90;;;;;;5015858;28;20455;-63
2023/01/12 12:36:35;;;;;;;1.00;0.70;;;11.00;99.90;;;;;;5016438;28;20558;-64
2023/01/12 12:39:20;;;;;;;1.30;1.05;;;11.00;99.90;;;;;;5015871;28;20814;-64
2023/01/12 12:47:56;;;;;;;1.52;1.20;;;11.20;99.90;;;;;;5015933;28;20446;-64
2023/01/12 12:50:29;;;;;;;1.40;1.05;;;11.10;99.90;;;;;;5013792;28;20904;-63
2023/01/12 12:53:12;;;;;;;1.20;1.10;;;11.10;99.90;;;;;;5015885;28;20432;-62
2023/01/12 12:55:39;;;;;;;1.70;1.20;;;11.10;99.90;;;;;;5015203;28;20432;-63
2023/01/12 12:58:27;;;;;;;1.50;0.90;;;11.10;99.90;;;;;;5016669;28;20423;-65
2023/01/12 13:00:55;;;;;;;1.08;0.77;;;11.10;99.90;;;;;;5016543;28;20789;-64
2023/01/12 13:03:47;;;;;;;1.30;0.80;;;11.10;99.90;;;;;;5014689;28;20519;-65
2023/01/12 13:06:21;;;;;;;1.20;0.80;;;11.10;99.90;;;;;;5014391;28;20426;-65
2023/01/12 13:08:50;;;;;;;1.30;0.70;;;11.20;99.90;;;;;;5011978;28;20935;-63
2023/01/12 13:11:18;;;;;;;1.27;0.80;;;11.20;99.90;;;;;;5013171;28;20445;-61
2023/01/12 13:13:59;;;;;;;1.27;0.90;;;11.20;99.90;;;;;;5012670;28;20523;-63
2023/01/12 13:16:47;;;;;;;1.60;1.00;;;11.20;99.90;;;;;;5016183;28;20746;-65
2023/01/12 13:19:36;;;;;;;1.20;0.80;;;11.20;99.90;;;;;;4999623;28;20422;-65
2023/01/12 13:22:26;;;;;;;1.60;1.00;;;11.20;99.90;;;;;;4996443;28;20422;-64
2023/01/12 13:24:54;;;;;;;1.60;1.10;;;11.10;99.90;;;;;;4996356;28;20411;-64
2023/01/12 13:27:46;;;;;;;1.60;0.82;;;11.20;99.90;;;;;;5006643;28;20444;-65
2023/01/12 13:30:37;;;;;;;1.10;0.90;;;11.20;99.90;;;;;;5015502;28;20428;-62
2023/01/12 13:33:20;;;;;;;2.00;0.70;;;11.20;99.90;;;;;;5015140;28;21013;-64
2023/01/12 13:36:11;;;;;;;0.80;0.60;;;11.30;99.90;;;;;;5015777;28;20527;-62
2023/01/12 13:39:06;;;;;;;1.50;0.70;;;11.30;99.90;;;;;;5014745;28;20767;-64
2023/01/12 13:44:24;;;;;;;1.25;0.60;;;11.20;99.90;;;;;;5015917;28;20777;-62
2023/01/12 13:46:56;;;;;;;1.40;0.80;;;11.20;99.90;;;;;;5015813;28;20427;-64
2023/01/12 13:49:29;;;;;;;0.85;0.60;;;11.20;99.90;;;;;;5014676;28;20447;-64
2023/01/12 13:52:01;;;;;;;0.80;0.60;;;11.20;99.90;;;;;;5015622;28;20439;-65
2023/01/12 13:54:30;;;;;;;1.20;0.90;;;11.20;99.90;;;;;;5014284;28;20983;-65
2023/01/12 13:56:59;;;;;;;1.17;0.90;;;11.20;99.90;;;;;;5014430;28;20924;-65
2023/01/12 13:59:28;;;;;;;1.15;0.80;;;11.20;99.90;;;;;;5013209;28;20464;-64
2023/01/12 14:01:56;;;;;;;1.10;0.90;;;11.20;99.90;;;;;;5016158;28;20765;-64
2023/01/12 14:04:58;;;;;;;2.17;0.80;;;11.20;99.90;;;;;;5016967;28;20439;-64
2023/01/12 14:07:45;;;;;;;1.10;0.80;;;11.20;99.90;;;;;;4998972;28;20414;-64